createdAt,value
2019-01-30T00:00:53.809Z,0.20
2019-01-30T00:03:22.527Z,0.20
2019-01-30T00:05:51.217Z,0.10
2019-01-30T00:08:19.868Z,0.10
2019-01-30T00:10:48.564Z,0.10
2019-01-30T00:13:17.141Z,0.20
2019-01-30T00:15:55.814Z,0.20
2019-01-30T00:18:16.115Z,0.20
2019-01-30T00:20:44.806Z,0.10
2019-01-30T00:23:13.555Z,0.10
2019-01-30T00:25:42.196Z,0.00
2019-01-30T00:28:10.888Z,0.00
2019-01-30T00:30:39.530Z,0.10
2019-01-30T00:33:08.276Z,0.10
2019-01-30T00:35:36.970Z,0.10
2019-01-30T00:38:05.690Z,0.10
2019-01-30T00:40:34.453Z,0.00
2019-01-30T00:43:03.104Z,0.10
2019-01-30T00:45:31.863Z,0.10
2019-01-30T00:48:00.448Z,0.10
2019-01-30T00:50:29.228Z,0.10
2019-01-30T00:52:57.874Z,0.20
2019-01-30T00:55:26.445Z,0.20
2019-01-30T00:57:55.140Z,0.20
2019-01-30T01:00:29.329Z,0.20
2019-01-30T01:02:58.096Z,0.30
2019-01-30T01:05:26.824Z,0.30
2019-01-30T01:07:55.545Z,0.30
2019-01-30T01:10:24.410Z,0.30
2019-01-30T01:12:53.128Z,0.40
2019-01-30T01:15:21.818Z,0.40
2019-01-30T01:17:50.473Z,0.40
2019-01-30T01:20:20.922Z,0.40
2019-01-30T01:22:49.633Z,0.30
2019-01-30T01:25:18.795Z,0.30
2019-01-30T01:27:48.044Z,0.30
2019-01-30T01:30:28.212Z,0.30
2019-01-30T01:32:57.062Z,0.30
2019-01-30T01:35:26.018Z,0.30
2019-01-30T01:42:21.507Z,0.20
2019-01-30T01:44:50.122Z,0.20
2019-01-30T01:47:18.774Z,0.10
2019-01-30T01:49:47.446Z,0.10
2019-01-30T01:52:16.247Z,0.00
2019-01-30T01:54:44.924Z,-0.10
2019-01-30T01:57:13.593Z,-0.10
2019-01-30T01:59:42.198Z,-0.20
2019-01-30T02:02:11.010Z,-0.20
2019-01-30T02:04:39.674Z,-0.30
2019-01-30T02:07:08.338Z,-0.30
2019-01-30T02:09:37.056Z,-0.30
2019-01-30T02:12:05.817Z,-0.30
2019-01-30T02:14:34.480Z,-0.30
2019-01-30T02:17:03.095Z,-0.30
2019-01-30T02:19:31.715Z,-0.30
2019-01-30T02:22:00.443Z,-0.30
2019-01-30T02:24:29.230Z,-0.30
2019-01-30T02:26:57.967Z,-0.30
2019-01-30T02:29:26.705Z,-0.30
2019-01-30T02:31:55.412Z,-0.40
2019-01-30T02:34:23.997Z,-0.30
2019-01-30T02:36:58.417Z,-0.40
2019-01-30T02:39:27.100Z,-0.40
2019-01-30T02:41:55.895Z,-0.30
2019-01-30T02:44:24.944Z,-0.30
2019-01-30T02:46:53.749Z,-0.30
2019-01-30T02:49:22.430Z,-0.40
2019-01-30T02:51:51.089Z,-0.30
2019-01-30T02:54:19.840Z,-0.30
2019-01-30T02:56:48.508Z,-0.30
2019-01-30T02:59:17.184Z,-0.20
2019-01-30T03:01:47.623Z,-0.30
2019-01-30T03:04:16.349Z,-0.20
2019-01-30T03:06:45.096Z,-0.20
2019-01-30T03:09:13.790Z,-0.30
2019-01-30T03:11:42.519Z,-0.20
2019-01-30T03:14:11.128Z,-0.20
2019-01-30T03:16:39.856Z,-0.20
2019-01-30T03:19:08.463Z,-0.20
2019-01-30T03:21:37.110Z,-0.20
2019-01-30T03:24:05.915Z,-0.20
2019-01-30T03:26:34.603Z,-0.20
2019-01-30T03:29:03.271Z,-0.30
2019-01-30T03:31:31.948Z,-0.30
2019-01-30T03:34:00.611Z,-0.30
2019-01-30T03:36:29.347Z,-0.30
2019-01-30T03:38:57.952Z,-0.30
2019-01-30T03:41:26.679Z,-0.30
2019-01-30T03:43:55.335Z,-0.30
2019-01-30T03:46:24.055Z,-0.30
2019-01-30T03:48:52.789Z,-0.30
2019-01-30T03:51:21.520Z,-0.30
2019-01-30T03:53:50.248Z,-0.30
2019-01-30T03:56:19.050Z,-0.30
2019-01-30T03:58:47.662Z,-0.30
2019-01-30T04:01:26.265Z,-0.30
2019-01-30T04:03:46.931Z,-0.30
2019-01-30T04:06:15.675Z,-0.30
2019-01-30T04:08:44.282Z,-0.30
2019-01-30T04:11:13.019Z,-0.30
2019-01-30T04:13:41.634Z,-0.20
2019-01-30T04:16:10.281Z,-0.20
2019-01-30T04:18:38.962Z,-0.30
2019-01-30T04:21:07.582Z,-0.30
2019-01-30T04:23:36.252Z,-0.20
2019-01-30T04:26:04.926Z,-0.20
2019-01-30T04:28:33.734Z,-0.20
2019-01-30T04:31:02.478Z,-0.20
2019-01-30T04:33:31.151Z,-0.20
2019-01-30T04:35:59.824Z,-0.20
2019-01-30T04:38:28.643Z,-0.20
2019-01-30T04:40:57.256Z,-0.20
2019-01-30T04:43:25.987Z,-0.20
2019-01-30T04:45:54.741Z,-0.10
2019-01-30T04:48:23.407Z,-0.10
2019-01-30T04:50:52.154Z,-0.10
2019-01-30T04:53:20.828Z,-0.10
2019-01-30T04:55:49.563Z,-0.10
2019-01-30T04:58:18.262Z,-0.10
2019-01-30T05:00:47.041Z,-0.10
2019-01-30T05:03:15.801Z,-0.10
2019-01-30T05:05:44.542Z,-0.10
2019-01-30T05:08:13.222Z,-0.10
2019-01-30T05:10:41.909Z,-0.10
2019-01-30T05:13:10.727Z,-0.20
2019-01-30T05:15:39.330Z,-0.20
2019-01-30T05:18:08.126Z,-0.20
2019-01-30T05:20:36.856Z,-0.20
2019-01-30T05:23:05.606Z,-0.20
2019-01-30T05:25:34.274Z,-0.20
2019-01-30T05:28:02.952Z,-0.20
2019-01-30T05:30:33.644Z,-0.20
2019-01-30T05:33:02.388Z,-0.20
2019-01-30T05:35:31.067Z,-0.20
2019-01-30T05:37:59.801Z,-0.20
2019-01-30T05:40:28.607Z,-0.20
2019-01-30T05:42:57.354Z,-0.20
2019-01-30T05:45:26.203Z,-0.20
2019-01-30T05:47:55.009Z,-0.20
2019-01-30T05:50:23.813Z,-0.20
2019-01-30T05:52:52.560Z,-0.20
2019-01-30T05:55:21.315Z,-0.20
2019-01-30T05:57:49.980Z,-0.20
2019-01-30T06:00:23.079Z,-0.20
2019-01-30T06:02:52.029Z,-0.10
2019-01-30T06:05:20.831Z,-0.20
2019-01-30T06:07:49.628Z,-0.20
2019-01-30T06:10:18.335Z,-0.20
2019-01-30T06:12:47.140Z,-0.20
2019-01-30T06:15:18.033Z,-0.20
2019-01-30T06:17:46.718Z,-0.20
2019-01-30T06:20:18.424Z,-0.20
2019-01-30T06:22:47.071Z,-0.20
2019-01-30T06:25:15.810Z,-0.20
2019-01-30T06:27:44.622Z,-0.20
2019-01-30T06:30:18.776Z,-0.20
2019-01-30T06:32:47.574Z,-0.10
2019-01-30T06:35:16.381Z,-0.10
2019-01-30T06:37:45.285Z,-0.20
2019-01-30T06:40:16.859Z,-0.20
2019-01-30T06:42:45.546Z,-0.20
2019-01-30T06:45:14.347Z,-0.20
2019-01-30T06:47:43.101Z,-0.20
2019-01-30T06:50:13.807Z,-0.20
2019-01-30T06:52:42.556Z,-0.20
2019-01-30T06:55:11.356Z,-0.20
2019-01-30T06:57:40.113Z,-0.20
2019-01-30T07:00:14.871Z,-0.20
2019-01-30T07:02:43.625Z,-0.20
2019-01-30T07:05:12.384Z,-0.20
2019-01-30T07:07:41.044Z,-0.20
2019-01-30T07:10:12.779Z,-0.20
2019-01-30T07:12:41.514Z,-0.10
2019-01-30T07:15:10.270Z,-0.10
2019-01-30T07:17:38.935Z,-0.10
2019-01-30T07:20:10.789Z,-0.20
2019-01-30T07:22:39.826Z,-0.10
2019-01-30T07:25:11.181Z,-0.20
2019-01-30T07:27:39.923Z,-0.20
2019-01-30T07:30:31.920Z,-0.20
2019-01-30T07:33:00.726Z,-0.20
2019-01-30T07:35:29.487Z,-0.10
2019-01-30T07:37:58.700Z,-0.10
2019-01-30T07:40:27.709Z,-0.10
2019-01-30T07:42:56.509Z,-0.10
2019-01-30T07:45:26.568Z,-0.10
2019-01-30T07:47:55.367Z,-0.10
2019-01-30T07:50:24.217Z,-0.10
2019-01-30T07:52:53.132Z,-0.10
2019-01-30T07:55:21.889Z,0.00
2019-01-30T07:57:50.510Z,0.00
2019-01-30T08:00:21.808Z,0.00
2019-01-30T08:02:53.326Z,0.00
2019-01-30T08:05:22.715Z,0.10
2019-01-30T08:07:52.223Z,0.10
2019-01-30T08:10:20.950Z,0.20
2019-01-30T08:12:49.704Z,0.20
2019-01-30T08:15:20.403Z,0.20
2019-01-30T08:17:49.194Z,0.20
2019-01-30T08:20:19.328Z,0.30
2019-01-30T08:22:48.152Z,0.30
2019-01-30T08:25:19.183Z,0.30
2019-01-30T08:27:48.410Z,0.30
2019-01-30T08:30:25.594Z,0.40
2019-01-30T08:35:30.339Z,0.40
2019-01-30T08:37:59.197Z,0.40
2019-01-30T08:40:28.020Z,0.50
2019-01-30T08:42:56.950Z,0.50
2019-01-30T08:45:30.092Z,0.50
2019-01-30T08:47:58.900Z,0.60
2019-01-30T08:50:27.662Z,0.60
2019-01-30T08:52:56.571Z,0.70
2019-01-30T08:55:25.443Z,0.70
2019-01-30T08:57:54.303Z,0.70
2019-01-30T09:00:27.645Z,0.80
2019-01-30T09:02:56.816Z,0.90
2019-01-30T09:05:25.875Z,0.80
2019-01-30T09:07:55.062Z,0.90
2019-01-30T09:10:25.723Z,0.90
2019-01-30T09:12:54.489Z,1.00
2019-01-30T09:15:24.550Z,1.00
2019-01-30T09:17:53.408Z,1.00
2019-01-30T09:20:23.678Z,1.00
2019-01-30T09:22:52.458Z,1.00
2019-01-30T09:25:23.266Z,1.00
2019-01-30T09:27:51.871Z,1.00
2019-01-30T09:30:25.921Z,1.00
2019-01-30T09:32:55.530Z,1.00
2019-01-30T09:35:24.614Z,0.90
2019-01-30T09:37:53.467Z,1.00
2019-01-30T09:40:22.705Z,1.00
2019-01-30T09:42:51.604Z,1.00
2019-01-30T09:45:21.215Z,0.80
2019-01-30T09:47:50.030Z,0.80
2019-01-30T09:50:23.453Z,0.80
2019-01-30T09:52:52.833Z,0.70
2019-01-30T09:55:21.703Z,0.70
2019-01-30T09:57:50.910Z,0.70
2019-01-30T10:00:31.273Z,0.60
2019-01-30T10:03:00.063Z,0.60
2019-01-30T10:05:28.749Z,0.50
2019-01-30T10:07:57.475Z,0.50
2019-01-30T10:10:38.068Z,0.50
2019-01-30T10:13:07.167Z,0.40
2019-01-30T10:15:38.377Z,0.40
2019-01-30T10:18:07.183Z,0.40
2019-01-30T10:20:37.287Z,0.40
2019-01-30T10:23:06.338Z,0.40
2019-01-30T10:25:35.144Z,0.40
2019-01-30T10:28:04.587Z,0.40
2019-01-30T10:30:38.832Z,0.50
2019-01-30T10:33:07.625Z,0.50
2019-01-30T10:35:36.306Z,0.60
2019-01-30T10:38:05.691Z,0.70
2019-01-30T10:40:34.491Z,0.70
2019-01-30T10:43:03.238Z,0.80
2019-01-30T10:45:32.044Z,0.80
2019-01-30T10:48:00.776Z,0.80
2019-01-30T10:50:31.731Z,0.80
2019-01-30T10:53:00.442Z,0.90
2019-01-30T10:55:31.510Z,1.10
2019-01-30T10:58:01.294Z,1.20
2019-01-30T11:00:32.741Z,1.30
2019-01-30T11:03:01.562Z,1.20
2019-01-30T11:05:30.296Z,1.20
2019-01-30T11:07:59.058Z,1.10
2019-01-30T11:10:27.786Z,1.20
2019-01-30T11:12:56.477Z,1.20
2019-01-30T11:15:29.780Z,1.20
2019-01-30T11:17:59.437Z,1.20
2019-01-30T11:20:29.638Z,1.30
2019-01-30T11:22:58.332Z,1.30
2019-01-30T11:25:41.617Z,1.30
2019-01-30T11:28:10.465Z,1.20
2019-01-30T11:30:39.131Z,1.40
2019-01-30T11:33:07.934Z,1.30
2019-01-30T11:35:36.882Z,1.30
2019-01-30T11:38:05.667Z,1.30
2019-01-30T11:40:34.411Z,1.30
2019-01-30T11:43:03.176Z,1.30
2019-01-30T11:45:40.520Z,1.20
2019-01-30T11:48:10.350Z,1.10
2019-01-30T11:50:39.708Z,1.00
2019-01-30T11:53:08.506Z,1.10
2019-01-30T11:55:38.939Z,1.10
2019-01-30T11:58:08.158Z,1.10
2019-01-30T12:00:41.418Z,1.10
2019-01-30T12:03:10.027Z,1.00
2019-01-30T12:05:38.832Z,0.90
2019-01-30T12:08:07.779Z,0.90
2019-01-30T12:10:36.458Z,0.90
2019-01-30T12:13:05.214Z,1.00
2019-01-30T12:15:33.828Z,1.00
2019-01-30T12:18:02.491Z,1.00
2019-01-30T12:20:31.234Z,1.10
2019-01-30T12:23:00.039Z,1.00
2019-01-30T12:25:28.829Z,1.10
2019-01-30T12:27:57.531Z,1.10
2019-01-30T12:30:27.785Z,1.00
2019-01-30T12:32:56.577Z,1.00
2019-01-30T12:35:25.379Z,1.10
2019-01-30T12:37:54.171Z,1.10
2019-01-30T12:40:24.183Z,1.10
2019-01-30T12:42:53.148Z,1.10
2019-01-30T12:45:33.896Z,1.10
2019-01-30T12:48:02.738Z,1.20
2019-01-30T12:50:31.640Z,1.30
2019-01-30T12:53:00.312Z,1.40
2019-01-30T12:55:29.653Z,1.40
2019-01-30T12:57:58.643Z,1.50
2019-01-30T13:00:30.347Z,1.60
2019-01-30T13:02:59.339Z,1.70
2019-01-30T13:05:28.738Z,1.70
2019-01-30T13:07:57.487Z,1.80
2019-01-30T13:10:26.452Z,1.70
2019-01-30T13:12:55.361Z,1.70
2019-01-30T13:15:27.092Z,1.80
2019-01-30T13:17:56.108Z,1.70
2019-01-30T13:20:24.935Z,1.70
2019-01-30T13:22:53.798Z,1.90
2019-01-30T13:25:27.743Z,2.00
2019-01-30T13:27:56.546Z,2.10
2019-01-30T13:30:28.119Z,2.10
2019-01-30T13:32:56.989Z,2.10
2019-01-30T13:35:25.905Z,2.10
2019-01-30T13:37:54.682Z,1.90
2019-01-30T13:40:26.459Z,1.90
2019-01-30T13:42:55.191Z,1.90
2019-01-30T13:45:24.098Z,1.90
2019-01-30T13:47:52.841Z,1.70
2019-01-30T13:50:23.739Z,1.70
2019-01-30T13:52:52.533Z,1.60
2019-01-30T13:55:21.308Z,1.50
2019-01-30T13:57:50.250Z,1.50
2019-01-30T14:00:24.773Z,1.50
2019-01-30T14:02:53.474Z,1.40
2019-01-30T14:05:22.209Z,1.40
2019-01-30T14:07:51.508Z,1.30
2019-01-30T14:10:20.437Z,1.40
2019-01-30T14:12:49.179Z,1.30
2019-01-30T14:15:20.566Z,1.30
2019-01-30T14:17:49.296Z,1.30
2019-01-30T14:20:18.846Z,1.30
2019-01-30T14:22:47.661Z,1.30
2019-01-30T14:25:17.407Z,1.30
2019-01-30T14:27:46.129Z,1.40
2019-01-30T14:30:32.492Z,1.40
2019-01-30T14:33:01.151Z,1.40
2019-01-30T14:35:31.650Z,1.40
2019-01-30T14:38:00.396Z,1.30
2019-01-30T14:40:29.116Z,1.30
2019-01-30T14:42:58.117Z,1.30
2019-01-30T14:45:26.851Z,1.20
2019-01-30T14:47:55.507Z,1.20
2019-01-30T14:50:26.140Z,1.10
2019-01-30T14:52:55.031Z,1.20
2019-01-30T14:55:23.804Z,1.10
2019-01-30T14:57:53.789Z,1.10
2019-01-30T15:00:25.196Z,1.10
2019-01-30T15:02:53.939Z,1.10
2019-01-30T15:05:22.969Z,1.10
2019-01-30T15:07:51.842Z,1.10
2019-01-30T15:10:22.476Z,1.10
2019-01-30T15:12:51.697Z,1.00
2019-01-30T15:15:27.984Z,1.00
2019-01-30T15:17:56.740Z,0.90
2019-01-30T15:20:27.534Z,0.90
2019-01-30T15:22:56.472Z,0.80
2019-01-30T15:25:25.790Z,0.90
2019-01-30T15:27:54.466Z,0.90
2019-01-30T15:30:31.618Z,0.90
2019-01-30T15:33:00.369Z,0.90
2019-01-30T15:35:33.559Z,0.90
2019-01-30T15:38:00.046Z,0.80
2019-01-30T15:40:30.345Z,0.80
2019-01-30T15:42:59.013Z,0.80
2019-01-30T15:45:27.810Z,0.80
2019-01-30T15:47:56.423Z,0.80
2019-01-30T15:50:33.919Z,0.70
2019-01-30T15:53:02.784Z,0.70
2019-01-30T15:55:31.574Z,0.70
2019-01-30T15:58:05.912Z,0.70
2019-01-30T16:00:52.161Z,0.70
2019-01-30T16:03:20.942Z,0.60
2019-01-30T16:05:49.632Z,0.60
2019-01-30T16:08:18.346Z,0.70
2019-01-30T16:10:47.146Z,0.70
2019-01-30T16:13:15.901Z,0.60
2019-01-30T16:15:56.652Z,0.60
2019-01-30T16:18:25.383Z,0.60
2019-01-30T16:20:54.134Z,0.60
2019-01-30T16:23:22.868Z,0.60
2019-01-30T16:25:53.083Z,0.50
2019-01-30T16:28:21.734Z,0.50
2019-01-30T16:30:50.467Z,0.40
2019-01-30T16:33:19.146Z,0.40
2019-01-30T16:35:55.657Z,0.40
2019-01-30T16:38:18.574Z,0.40
2019-01-30T16:40:47.232Z,0.40
2019-01-30T16:43:15.985Z,0.40
2019-01-30T16:45:44.809Z,0.40
2019-01-30T16:48:13.438Z,0.40
2019-01-30T16:50:42.229Z,0.40
2019-01-30T16:53:10.962Z,0.40
2019-01-30T16:55:39.712Z,0.40
2019-01-30T16:58:08.782Z,0.40
2019-01-30T17:00:38.720Z,0.40
2019-01-30T17:03:09.315Z,0.40
2019-01-30T17:05:38.059Z,0.40
2019-01-30T17:08:07.507Z,0.40
2019-01-30T17:10:36.403Z,0.40
2019-01-30T17:13:17.210Z,0.40
2019-01-30T17:15:45.950Z,0.40
2019-01-30T17:18:15.787Z,0.40
2019-01-30T17:20:44.631Z,0.40
2019-01-30T17:23:13.512Z,0.30
2019-01-30T17:25:42.483Z,0.40
2019-01-30T17:28:11.305Z,0.40
2019-01-30T17:30:58.766Z,0.40
2019-01-30T17:33:27.436Z,0.40
2019-01-30T17:35:56.217Z,0.40
2019-01-30T17:38:25.342Z,0.40
2019-01-30T17:40:54.536Z,0.40
2019-01-30T17:43:23.200Z,0.40
2019-01-30T17:45:51.867Z,0.40
2019-01-30T17:48:20.755Z,0.40
2019-01-30T17:50:49.429Z,0.40
2019-01-30T17:53:18.044Z,0.40
2019-01-30T17:55:46.757Z,0.40
2019-01-30T17:58:15.483Z,0.30
2019-01-30T18:00:50.073Z,0.30
2019-01-30T18:03:18.682Z,0.30
2019-01-30T18:05:47.578Z,0.30
2019-01-30T18:08:16.313Z,0.30
2019-01-30T18:10:45.107Z,0.30
2019-01-30T18:13:13.854Z,0.30
2019-01-30T18:15:42.660Z,0.30
2019-01-30T18:18:12.334Z,0.30
2019-01-30T18:20:41.419Z,0.30
2019-01-30T18:23:10.370Z,0.30
2019-01-30T18:25:39.034Z,0.20
2019-01-30T18:28:07.835Z,0.20
2019-01-30T18:30:36.581Z,0.20
2019-01-30T18:33:05.651Z,0.20
2019-01-30T18:35:34.263Z,0.20
2019-01-30T18:38:03.071Z,0.20
2019-01-30T18:40:32.225Z,0.20
2019-01-30T18:43:00.915Z,0.20
2019-01-30T18:45:29.727Z,0.20
2019-01-30T18:47:58.995Z,0.20
2019-01-30T18:50:29.151Z,0.20
2019-01-30T18:52:58.166Z,0.10
2019-01-30T18:55:26.966Z,0.10
2019-01-30T18:57:55.715Z,0.10
2019-01-30T19:00:36.119Z,0.10
2019-01-30T19:03:07.266Z,0.10
2019-01-30T19:05:36.058Z,0.00
2019-01-30T19:08:04.853Z,0.00
2019-01-30T19:10:33.524Z,0.00
2019-01-30T19:13:02.262Z,0.10
2019-01-30T19:15:31.795Z,0.00
2019-01-30T19:18:00.431Z,0.10
2019-01-30T19:20:37.338Z,0.10
2019-01-30T19:23:07.022Z,0.10
2019-01-30T19:25:35.984Z,0.10
2019-01-30T19:28:05.538Z,0.10
2019-01-30T19:30:34.529Z,0.10
2019-01-30T19:33:03.817Z,0.20
2019-01-30T19:35:32.424Z,0.20
2019-01-30T19:38:01.276Z,0.20
2019-01-30T19:40:30.083Z,0.10
2019-01-30T19:42:58.769Z,0.20
2019-01-30T19:45:28.274Z,0.10
2019-01-30T19:47:56.947Z,0.10
2019-01-30T19:50:27.609Z,0.10
2019-01-30T19:52:56.510Z,0.10
2019-01-30T19:55:25.260Z,0.20
2019-01-30T19:57:55.068Z,0.20
2019-01-30T20:00:32.370Z,0.30
2019-01-30T20:03:02.671Z,0.20
2019-01-30T20:05:31.418Z,0.30
2019-01-30T20:08:00.571Z,0.30
2019-01-30T20:10:31.813Z,0.30
2019-01-30T20:13:00.622Z,0.40
2019-01-30T20:15:30.188Z,0.40
2019-01-30T20:17:59.043Z,0.40
2019-01-30T20:20:27.861Z,0.40
2019-01-30T20:22:56.707Z,0.30
2019-01-30T20:25:28.465Z,0.30
2019-01-30T20:27:57.271Z,0.30
2019-01-30T20:30:26.476Z,0.30
2019-01-30T20:32:55.668Z,0.30
2019-01-30T20:35:25.446Z,0.30
2019-01-30T20:37:54.337Z,0.20
2019-01-30T20:40:25.670Z,0.30
2019-01-30T20:42:54.630Z,0.30
2019-01-30T20:45:33.391Z,0.30
2019-01-30T20:47:54.206Z,0.30
2019-01-30T20:50:30.338Z,0.30
2019-01-30T20:52:59.290Z,0.30
2019-01-30T20:55:28.039Z,0.40
2019-01-30T20:57:56.803Z,0.40
2019-01-30T21:00:35.246Z,0.40
2019-01-30T21:03:04.893Z,0.40
2019-01-30T21:05:33.788Z,0.30
2019-01-30T21:08:02.736Z,0.40
2019-01-30T21:10:34.138Z,0.40
2019-01-30T21:13:03.031Z,0.40
2019-01-30T21:15:31.809Z,0.40
2019-01-30T21:18:00.593Z,0.40
2019-01-30T21:20:29.326Z,0.50
2019-01-30T21:22:58.114Z,0.50
2019-01-30T21:25:27.026Z,0.50
2019-01-30T21:27:55.859Z,0.50
2019-01-30T21:30:30.132Z,0.50
2019-01-30T21:32:58.992Z,0.50
2019-01-30T21:35:27.958Z,0.50
2019-01-30T21:37:56.657Z,0.50
2019-01-30T21:40:25.484Z,0.50
2019-01-30T21:42:54.282Z,0.60
2019-01-30T21:45:24.883Z,0.60
2019-01-30T21:47:54.006Z,0.60
2019-01-30T21:50:23.036Z,0.60
2019-01-30T21:52:52.256Z,0.60
2019-01-30T21:55:24.970Z,0.60
2019-01-30T21:57:54.088Z,0.60
2019-01-30T22:00:25.682Z,0.60
2019-01-30T22:02:54.703Z,0.70
2019-01-30T22:05:23.943Z,0.70
2019-01-30T22:08:00.539Z,0.70
2019-01-30T22:10:25.990Z,0.70
2019-01-30T22:12:55.099Z,0.70
2019-01-30T22:15:24.295Z,0.70
2019-01-30T22:17:53.396Z,0.80
2019-01-30T22:20:26.937Z,0.70
2019-01-30T22:22:56.238Z,0.70
2019-01-30T22:25:26.808Z,0.70
2019-01-30T22:27:55.824Z,0.80
2019-01-30T22:30:34.863Z,0.80
2019-01-30T22:33:04.618Z,0.80
2019-01-30T22:35:33.690Z,0.80
2019-01-30T22:38:12.269Z,0.80
2019-01-30T22:40:33.700Z,0.80
2019-01-30T22:43:02.772Z,0.80
2019-01-30T22:45:31.822Z,0.80
2019-01-30T22:48:00.798Z,0.80
2019-01-30T22:50:29.880Z,0.80
2019-01-30T22:52:59.016Z,0.80
2019-01-30T22:55:27.876Z,0.80
2019-01-30T22:57:57.087Z,0.80
2019-01-30T23:00:30.721Z,0.80
2019-01-30T23:03:00.313Z,0.80
2019-01-30T23:05:55.033Z,0.90
2019-01-30T23:08:24.206Z,0.80
2019-01-30T23:10:55.905Z,0.80
2019-01-30T23:13:30.870Z,0.80
2019-01-30T23:16:17.808Z,0.80
2019-01-30T23:19:04.855Z,0.80
2019-01-30T23:21:36.792Z,0.80
2019-01-30T23:24:43.845Z,0.80
2019-01-30T23:27:18.556Z,0.80
2019-01-30T23:30:13.433Z,0.90
2019-01-30T23:33:02.166Z,0.90
2019-01-30T23:35:46.278Z,0.90
2019-01-30T23:38:34.439Z,0.90
2019-01-30T23:41:09.352Z,0.90
2019-01-30T23:43:44.160Z,0.90
2019-01-30T23:46:19.128Z,0.90
2019-01-30T23:48:57.293Z,0.90
2019-01-30T23:51:38.202Z,0.90
2019-01-30T23:54:16.173Z,0.90
2019-01-30T23:56:48.083Z,0.90
2019-01-30T23:59:35.100Z,0.90
